sensor_id;sensor_type;location;lat;lon;timestamp;temperature;humidity
573;DHT22;271;51.114;13.780;2022-12-18T00:01:19;-7.70;1.00
573;DHT22;271;51.114;13.780;2022-12-18T00:03:47;-7.70;1.00
573;DHT22;271;51.114;13.780;2022-12-18T00:06:16;-7.80;1.00
573;DHT22;271;51.114;13.780;2022-12-18T00:08:44;-7.80;1.00
573;DHT22;271;51.114;13.780;2022-12-18T00:11:15;-7.70;1.00
573;DHT22;271;51.114;13.780;2022-12-18T00:13:43;-7.80;1.00
573;DHT22;271;51.114;13.780;2022-12-18T00:16:13;-7.80;1.00
573;DHT22;271;51.114;13.780;2022-12-18T00:18:41;-7.70;1.00
573;DHT22;271;51.114;13.780;2022-12-18T00:21:10;-7.80;1.00
573;DHT22;271;51.114;13.780;2022-12-18T00:23:40;-7.90;1.00
573;DHT22;271;51.114;13.780;2022-12-18T00:26:11;-7.90;1.00
573;DHT22;271;51.114;13.780;2022-12-18T00:28:38;-7.90;1.00
573;DHT22;271;51.114;13.780;2022-12-18T00:31:08;-7.90;1.00
573;DHT22;271;51.114;13.780;2022-12-18T00:33:36;-7.90;1.00
573;DHT22;271;51.114;13.780;2022-12-18T00:36:05;-8.00;1.00
573;DHT22;271;51.114;13.780;2022-12-18T00:38:33;-8.20;1.00
573;DHT22;271;51.114;13.780;2022-12-18T00:41:03;-8.10;1.00
573;DHT22;271;51.114;13.780;2022-12-18T00:43:30;-8.10;1.00
573;DHT22;271;51.114;13.780;2022-12-18T00:45:56;-8.10;1.00
573;DHT22;271;51.114;13.780;2022-12-18T00:48:24;-8.10;1.00
573;DHT22;271;51.114;13.780;2022-12-18T00:50:52;-8.10;1.00
573;DHT22;271;51.114;13.780;2022-12-18T00:53:19;-8.10;1.00
573;DHT22;271;51.114;13.780;2022-12-18T00:55:46;-8.10;1.00
573;DHT22;271;51.114;13.780;2022-12-18T00:58:16;-8.10;1.00
573;DHT22;271;51.114;13.780;2022-12-18T01:00:43;-8.20;1.00
573;DHT22;271;51.114;13.780;2022-12-18T01:03:13;-8.20;1.00
573;DHT22;271;51.114;13.780;2022-12-18T01:05:41;-8.20;1.00
573;DHT22;271;51.114;13.780;2022-12-18T01:08:09;-8.20;1.00
573;DHT22;271;51.114;13.780;2022-12-18T01:10:36;-8.20;1.00
573;DHT22;271;51.114;13.780;2022-12-18T01:13:06;-8.20;1.00
573;DHT22;271;51.114;13.780;2022-12-18T01:15:35;-8.20;1.00
573;DHT22;271;51.114;13.780;2022-12-18T01:18:03;-8.30;1.00
573;DHT22;271;51.114;13.780;2022-12-18T01:20:30;-8.30;1.00
573;DHT22;271;51.114;13.780;2022-12-18T01:22:57;-8.30;1.00
573;DHT22;271;51.114;13.780;2022-12-18T01:25:25;-8.40;1.00
573;DHT22;271;51.114;13.780;2022-12-18T01:27:53;-8.40;1.00
573;DHT22;271;51.114;13.780;2022-12-18T01:30:20;-8.40;1.00
573;DHT22;271;51.114;13.780;2022-12-18T01:32:49;-8.40;1.00
573;DHT22;271;51.114;13.780;2022-12-18T01:35:16;-8.40;1.00
573;DHT22;271;51.114;13.780;2022-12-18T01:37:44;-8.40;1.00
573;DHT22;271;51.114;13.780;2022-12-18T01:40:11;-8.50;1.00
573;DHT22;271;51.114;13.780;2022-12-18T01:42:39;-8.50;1.00
573;DHT22;271;51.114;13.780;2022-12-18T01:45:23;-8.50;1.00
573;DHT22;271;51.114;13.780;2022-12-18T01:47:53;-8.70;1.00
573;DHT22;271;51.114;13.780;2022-12-18T01:50:24;-8.70;1.00
573;DHT22;271;51.114;13.780;2022-12-18T01:52:56;-8.60;1.00
573;DHT22;271;51.114;13.780;2022-12-18T01:55:27;-8.60;1.00
573;DHT22;271;51.114;13.780;2022-12-18T01:57:57;-8.60;1.00
573;DHT22;271;51.114;13.780;2022-12-18T02:00:26;-8.70;1.00
573;DHT22;271;51.114;13.780;2022-12-18T02:02:55;-8.60;1.00
573;DHT22;271;51.114;13.780;2022-12-18T02:05:29;-8.70;1.00
573;DHT22;271;51.114;13.780;2022-12-18T02:08:06;-8.70;1.00
573;DHT22;271;51.114;13.780;2022-12-18T02:10:43;-8.70;1.00
573;DHT22;271;51.114;13.780;2022-12-18T02:13:18;-8.80;1.00
573;DHT22;271;51.114;13.780;2022-12-18T02:15:54;-8.80;1.00
573;DHT22;271;51.114;13.780;2022-12-18T02:18:30;-8.80;1.00
573;DHT22;271;51.114;13.780;2022-12-18T02:21:07;-8.80;1.00
573;DHT22;271;51.114;13.780;2022-12-18T02:23:48;-8.90;1.00
573;DHT22;271;51.114;13.780;2022-12-18T02:26:24;-8.80;1.00
573;DHT22;271;51.114;13.780;2022-12-18T02:28:56;-8.90;1.00
573;DHT22;271;51.114;13.780;2022-12-18T02:31:28;-8.90;1.00
573;DHT22;271;51.114;13.780;2022-12-18T02:33:59;-8.90;1.00
573;DHT22;271;51.114;13.780;2022-12-18T02:36:28;-8.90;1.00
573;DHT22;271;51.114;13.780;2022-12-18T02:38:56;-8.90;1.00
573;DHT22;271;51.114;13.780;2022-12-18T02:41:28;-9.00;1.00
573;DHT22;271;51.114;13.780;2022-12-18T02:43:57;-9.00;1.00
573;DHT22;271;51.114;13.780;2022-12-18T02:46:31;-9.00;1.00
573;DHT22;271;51.114;13.780;2022-12-18T02:49:06;-9.00;1.00
573;DHT22;271;51.114;13.780;2022-12-18T02:51:43;-9.00;1.00
573;DHT22;271;51.114;13.780;2022-12-18T02:54:26;-9.00;1.00
573;DHT22;271;51.114;13.780;2022-12-18T02:57:03;-9.00;1.00
573;DHT22;271;51.114;13.780;2022-12-18T02:59:38;-8.90;1.00
573;DHT22;271;51.114;13.780;2022-12-18T03:02:17;-8.90;1.00
573;DHT22;271;51.114;13.780;2022-12-18T03:04:50;-8.90;1.00
573;DHT22;271;51.114;13.780;2022-12-18T03:07:26;-9.00;1.00
573;DHT22;271;51.114;13.780;2022-12-18T03:09:55;-9.00;1.00
573;DHT22;271;51.114;13.780;2022-12-18T03:12:29;-9.00;1.00
573;DHT22;271;51.114;13.780;2022-12-18T03:15:02;-9.00;1.00
573;DHT22;271;51.114;13.780;2022-12-18T03:17:31;-9.00;1.00
573;DHT22;271;51.114;13.780;2022-12-18T03:20:03;-8.90;1.00
573;DHT22;271;51.114;13.780;2022-12-18T03:22:33;-8.90;1.00
573;DHT22;271;51.114;13.780;2022-12-18T03:25:04;-8.90;1.00
573;DHT22;271;51.114;13.780;2022-12-18T03:27:36;-8.90;1.00
573;DHT22;271;51.114;13.780;2022-12-18T03:30:08;-8.80;1.00
573;DHT22;271;51.114;13.780;2022-12-18T03:32:41;-8.80;1.00
573;DHT22;271;51.114;13.780;2022-12-18T03:35:12;-8.80;1.00
573;DHT22;271;51.114;13.780;2022-12-18T03:37:47;-8.80;1.00
573;DHT22;271;51.114;13.780;2022-12-18T03:40:15;-8.80;1.00
573;DHT22;271;51.114;13.780;2022-12-18T03:42:47;-8.80;1.00
573;DHT22;271;51.114;13.780;2022-12-18T03:45:21;-8.80;1.00
573;DHT22;271;51.114;13.780;2022-12-18T03:47:58;-8.80;1.00
573;DHT22;271;51.114;13.780;2022-12-18T03:50:33;-8.90;1.00
573;DHT22;271;51.114;13.780;2022-12-18T03:53:10;-8.90;1.00
573;DHT22;271;51.114;13.780;2022-12-18T03:55:39;-9.00;1.00
573;DHT22;271;51.114;13.780;2022-12-18T03:58:10;-9.00;1.00
573;DHT22;271;51.114;13.780;2022-12-18T04:00:39;-8.90;1.00
573;DHT22;271;51.114;13.780;2022-12-18T04:03:07;-8.90;1.00
573;DHT22;271;51.114;13.780;2022-12-18T04:05:36;-8.80;1.00
573;DHT22;271;51.114;13.780;2022-12-18T04:08:04;-8.80;1.00
573;DHT22;271;51.114;13.780;2022-12-18T04:10:32;-8.80;1.00
573;DHT22;271;51.114;13.780;2022-12-18T04:13:08;-8.80;1.00
573;DHT22;271;51.114;13.780;2022-12-18T04:15:36;-8.90;1.00
573;DHT22;271;51.114;13.780;2022-12-18T04:18:04;-8.80;1.00
573;DHT22;271;51.114;13.780;2022-12-18T04:20:32;-8.80;1.00
573;DHT22;271;51.114;13.780;2022-12-18T04:22:59;-8.80;1.00
573;DHT22;271;51.114;13.780;2022-12-18T04:25:26;-8.90;1.00
573;DHT22;271;51.114;13.780;2022-12-18T04:27:54;-8.90;1.00
573;DHT22;271;51.114;13.780;2022-12-18T04:30:22;-8.90;1.00
573;DHT22;271;51.114;13.780;2022-12-18T04:32:50;-8.90;1.00
573;DHT22;271;51.114;13.780;2022-12-18T04:35:17;-8.90;1.00
573;DHT22;271;51.114;13.780;2022-12-18T04:37:45;-8.90;1.00
573;DHT22;271;51.114;13.780;2022-12-18T04:40:12;-8.90;1.00
573;DHT22;271;51.114;13.780;2022-12-18T04:42:40;-8.90;1.00
573;DHT22;271;51.114;13.780;2022-12-18T04:45:08;-9.00;1.00
573;DHT22;271;51.114;13.780;2022-12-18T04:47:37;-8.90;1.00
573;DHT22;271;51.114;13.780;2022-12-18T04:50:05;-9.00;1.00
573;DHT22;271;51.114;13.780;2022-12-18T04:52:33;-9.00;1.00
573;DHT22;271;51.114;13.780;2022-12-18T04:55:00;-9.00;1.00
573;DHT22;271;51.114;13.780;2022-12-18T04:57:29;-9.10;1.00
573;DHT22;271;51.114;13.780;2022-12-18T04:59:56;-9.00;1.00
573;DHT22;271;51.114;13.780;2022-12-18T05:02:24;-9.10;1.00
573;DHT22;271;51.114;13.780;2022-12-18T05:04:52;-9.10;1.00
573;DHT22;271;51.114;13.780;2022-12-18T05:07:20;-9.10;1.00
573;DHT22;271;51.114;13.780;2022-12-18T05:09:47;-9.00;1.00
573;DHT22;271;51.114;13.780;2022-12-18T05:12:15;-9.10;1.00
573;DHT22;271;51.114;13.780;2022-12-18T05:14:42;-9.00;1.00
573;DHT22;271;51.114;13.780;2022-12-18T05:17:09;-9.10;1.00
573;DHT22;271;51.114;13.780;2022-12-18T05:19:40;-9.10;1.00
573;DHT22;271;51.114;13.780;2022-12-18T05:22:09;-9.10;1.00
573;DHT22;271;51.114;13.780;2022-12-18T05:24:36;-9.20;1.00
573;DHT22;271;51.114;13.780;2022-12-18T05:27:04;-9.10;1.00
573;DHT22;271;51.114;13.780;2022-12-18T05:29:31;-9.20;1.00
573;DHT22;271;51.114;13.780;2022-12-18T05:31:59;-9.20;1.00
573;DHT22;271;51.114;13.780;2022-12-18T05:34:26;-9.20;1.00
573;DHT22;271;51.114;13.780;2022-12-18T05:36:54;-9.20;1.00
573;DHT22;271;51.114;13.780;2022-12-18T05:39:22;-9.20;1.00
573;DHT22;271;51.114;13.780;2022-12-18T05:41:50;-9.20;1.00
573;DHT22;271;51.114;13.780;2022-12-18T05:44:17;-9.30;1.00
573;DHT22;271;51.114;13.780;2022-12-18T05:46:45;-9.30;1.00
573;DHT22;271;51.114;13.780;2022-12-18T05:49:12;-9.30;1.00
573;DHT22;271;51.114;13.780;2022-12-18T05:51:40;-9.30;1.00
573;DHT22;271;51.114;13.780;2022-12-18T05:54:07;-9.30;1.00
573;DHT22;271;51.114;13.780;2022-12-18T05:56:37;-9.20;1.00
573;DHT22;271;51.114;13.780;2022-12-18T05:59:04;-9.30;1.00
573;DHT22;271;51.114;13.780;2022-12-18T06:01:32;-9.40;1.00
573;DHT22;271;51.114;13.780;2022-12-18T06:03:59;-9.30;1.00
573;DHT22;271;51.114;13.780;2022-12-18T06:06:27;-9.30;1.00
573;DHT22;271;51.114;13.780;2022-12-18T06:08:56;-9.30;1.00
573;DHT22;271;51.114;13.780;2022-12-18T06:11:25;-9.40;1.00
573;DHT22;271;51.114;13.780;2022-12-18T06:13:56;-9.40;1.00
573;DHT22;271;51.114;13.780;2022-12-18T06:16:23;-9.50;1.00
573;DHT22;271;51.114;13.780;2022-12-18T06:18:52;-9.40;1.00
573;DHT22;271;51.114;13.780;2022-12-18T06:21:19;-9.40;1.00
573;DHT22;271;51.114;13.780;2022-12-18T06:23:47;-9.40;1.00
573;DHT22;271;51.114;13.780;2022-12-18T06:26:16;-9.40;1.00
573;DHT22;271;51.114;13.780;2022-12-18T06:28:44;-9.40;1.00
573;DHT22;271;51.114;13.780;2022-12-18T06:31:13;-9.50;1.00
573;DHT22;271;51.114;13.780;2022-12-18T06:33:41;-9.40;1.00
573;DHT22;271;51.114;13.780;2022-12-18T06:36:11;-9.50;1.00
573;DHT22;271;51.114;13.780;2022-12-18T06:38:41;-9.50;1.00
573;DHT22;271;51.114;13.780;2022-12-18T06:41:10;-9.40;1.00
573;DHT22;271;51.114;13.780;2022-12-18T06:43:40;-9.50;1.00
573;DHT22;271;51.114;13.780;2022-12-18T06:46:08;-9.50;1.00
573;DHT22;271;51.114;13.780;2022-12-18T06:48:37;-9.50;1.00
573;DHT22;271;51.114;13.780;2022-12-18T06:51:05;-9.50;1.00
573;DHT22;271;51.114;13.780;2022-12-18T06:53:33;-9.50;1.00
573;DHT22;271;51.114;13.780;2022-12-18T06:56:01;-9.50;1.00
573;DHT22;271;51.114;13.780;2022-12-18T06:58:29;-9.40;1.00
573;DHT22;271;51.114;13.780;2022-12-18T07:01:00;-9.40;1.00
573;DHT22;271;51.114;13.780;2022-12-18T07:03:28;-9.40;1.00
573;DHT22;271;51.114;13.780;2022-12-18T07:05:57;-9.40;1.00
573;DHT22;271;51.114;13.780;2022-12-18T07:08:24;-9.30;1.00
573;DHT22;271;51.114;13.780;2022-12-18T07:10:52;-9.30;1.00
573;DHT22;271;51.114;13.780;2022-12-18T07:13:20;-9.40;1.00
573;DHT22;271;51.114;13.780;2022-12-18T07:15:47;-9.30;1.00
573;DHT22;271;51.114;13.780;2022-12-18T07:18:14;-9.30;1.00
573;DHT22;271;51.114;13.780;2022-12-18T07:20:42;-9.30;1.00
573;DHT22;271;51.114;13.780;2022-12-18T07:23:11;-9.30;1.00
573;DHT22;271;51.114;13.780;2022-12-18T07:25:42;-9.30;1.00
573;DHT22;271;51.114;13.780;2022-12-18T07:28:09;-9.30;1.00
573;DHT22;271;51.114;13.780;2022-12-18T07:30:38;-9.20;1.00
573;DHT22;271;51.114;13.780;2022-12-18T07:33:06;-9.20;1.00
573;DHT22;271;51.114;13.780;2022-12-18T07:35:36;-9.20;1.00
573;DHT22;271;51.114;13.780;2022-12-18T07:38:04;-9.20;1.00
573;DHT22;271;51.114;13.780;2022-12-18T07:40:33;-9.20;1.00
573;DHT22;271;51.114;13.780;2022-12-18T07:43:00;-9.20;1.00
573;DHT22;271;51.114;13.780;2022-12-18T07:45:31;-9.10;1.00
573;DHT22;271;51.114;13.780;2022-12-18T07:47:59;-9.10;1.00
573;DHT22;271;51.114;13.780;2022-12-18T07:50:26;-9.10;1.00
573;DHT22;271;51.114;13.780;2022-12-18T07:52:54;-9.10;1.00
573;DHT22;271;51.114;13.780;2022-12-18T07:55:21;-9.00;1.00
573;DHT22;271;51.114;13.780;2022-12-18T07:57:50;-8.90;1.00
573;DHT22;271;51.114;13.780;2022-12-18T08:00:18;-8.80;1.00
573;DHT22;271;51.114;13.780;2022-12-18T08:02:47;-8.60;1.00
573;DHT22;271;51.114;13.780;2022-12-18T08:05:14;-8.30;1.00
573;DHT22;271;51.114;13.780;2022-12-18T08:07:42;-8.00;1.00
573;DHT22;271;51.114;13.780;2022-12-18T08:10:11;-7.70;1.00
573;DHT22;271;51.114;13.780;2022-12-18T08:12:41;-7.50;1.00
573;DHT22;271;51.114;13.780;2022-12-18T08:15:11;-7.40;1.00
573;DHT22;271;51.114;13.780;2022-12-18T08:17:39;-7.10;1.00
573;DHT22;271;51.114;13.780;2022-12-18T08:20:08;-6.80;1.00
573;DHT22;271;51.114;13.780;2022-12-18T08:22:39;-6.40;1.00
573;DHT22;271;51.114;13.780;2022-12-18T08:25:08;-6.20;1.00
573;DHT22;271;51.114;13.780;2022-12-18T08:27:37;-6.00;1.00
573;DHT22;271;51.114;13.780;2022-12-18T08:30:07;-5.90;1.00
573;DHT22;271;51.114;13.780;2022-12-18T08:32:37;-5.70;1.00
573;DHT22;271;51.114;13.780;2022-12-18T08:35:09;-5.70;1.00
573;DHT22;271;51.114;13.780;2022-12-18T08:37:38;-5.50;1.00
573;DHT22;271;51.114;13.780;2022-12-18T08:40:08;-5.40;1.00
573;DHT22;271;51.114;13.780;2022-12-18T08:42:36;-5.30;1.00
573;DHT22;271;51.114;13.780;2022-12-18T08:45:22;-5.10;1.00
573;DHT22;271;51.114;13.780;2022-12-18T08:47:52;-4.80;1.00
573;DHT22;271;51.114;13.780;2022-12-18T08:50:21;-4.50;1.00
573;DHT22;271;51.114;13.780;2022-12-18T08:52:49;-4.20;1.00
573;DHT22;271;51.114;13.780;2022-12-18T08:55:17;-3.80;1.00
573;DHT22;271;51.114;13.780;2022-12-18T08:57:48;-3.40;1.00
573;DHT22;271;51.114;13.780;2022-12-18T09:00:17;-3.10;1.00
573;DHT22;271;51.114;13.780;2022-12-18T09:02:46;-2.60;1.00
573;DHT22;271;51.114;13.780;2022-12-18T09:05:17;-2.20;1.00
573;DHT22;271;51.114;13.780;2022-12-18T09:07:44;-2.00;1.00
573;DHT22;271;51.114;13.780;2022-12-18T09:10:12;-1.90;1.00
573;DHT22;271;51.114;13.780;2022-12-18T09:12:39;-1.90;1.00
573;DHT22;271;51.114;13.780;2022-12-18T09:15:08;-2.00;1.00
573;DHT22;271;51.114;13.780;2022-12-18T09:17:36;-2.10;1.00
573;DHT22;271;51.114;13.780;2022-12-18T09:20:04;-1.90;1.00
573;DHT22;271;51.114;13.780;2022-12-18T09:22:33;-1.80;1.00
573;DHT22;271;51.114;13.780;2022-12-18T09:25:01;-1.70;1.00
573;DHT22;271;51.114;13.780;2022-12-18T09:27:34;-1.50;1.00
573;DHT22;271;51.114;13.780;2022-12-18T09:30:04;-1.30;1.00
573;DHT22;271;51.114;13.780;2022-12-18T09:32:31;-1.10;1.00
573;DHT22;271;51.114;13.780;2022-12-18T09:34:59;-0.80;1.00
573;DHT22;271;51.114;13.780;2022-12-18T09:37:27;-0.70;1.00
573;DHT22;271;51.114;13.780;2022-12-18T09:39:58;-0.70;1.00
573;DHT22;271;51.114;13.780;2022-12-18T09:42:27;-0.50;1.00
573;DHT22;271;51.114;13.780;2022-12-18T09:44:54;-0.50;1.00
573;DHT22;271;51.114;13.780;2022-12-18T09:47:25;-0.60;1.00
573;DHT22;271;51.114;13.780;2022-12-18T09:49:57;-0.70;1.00
573;DHT22;271;51.114;13.780;2022-12-18T09:52:27;-0.80;1.00
573;DHT22;271;51.114;13.780;2022-12-18T09:55:01;-0.70;1.00
573;DHT22;271;51.114;13.780;2022-12-18T09:57:31;-0.60;1.00
573;DHT22;271;51.114;13.780;2022-12-18T10:00:04;-0.40;1.00
573;DHT22;271;51.114;13.780;2022-12-18T10:02:33;-0.10;1.00
573;DHT22;271;51.114;13.780;2022-12-18T10:05:10;0.00;1.00
573;DHT22;271;51.114;13.780;2022-12-18T10:07:51;0.10;1.00
573;DHT22;271;51.114;13.780;2022-12-18T10:10:30;0.30;1.00
573;DHT22;271;51.114;13.780;2022-12-18T10:13:06;0.70;1.00
573;DHT22;271;51.114;13.780;2022-12-18T10:15:39;0.60;1.00
573;DHT22;271;51.114;13.780;2022-12-18T10:18:24;0.90;1.00
573;DHT22;271;51.114;13.780;2022-12-18T10:21:02;0.60;1.00
573;DHT22;271;51.114;13.780;2022-12-18T10:23:36;0.70;1.00
573;DHT22;271;51.114;13.780;2022-12-18T10:26:10;0.60;1.00
573;DHT22;271;51.114;13.780;2022-12-18T10:28:41;0.70;1.00
573;DHT22;271;51.114;13.780;2022-12-18T10:31:15;0.40;1.00
573;DHT22;271;51.114;13.780;2022-12-18T10:33:43;0.20;1.00
573;DHT22;271;51.114;13.780;2022-12-18T10:36:11;0.00;1.00
573;DHT22;271;51.114;13.780;2022-12-18T10:38:39;0.00;1.00
573;DHT22;271;51.114;13.780;2022-12-18T10:41:24;-0.20;1.00
573;DHT22;271;51.114;13.780;2022-12-18T10:44:14;-0.30;1.00
573;DHT22;271;51.114;13.780;2022-12-18T10:46:45;-0.10;1.00
573;DHT22;271;51.114;13.780;2022-12-18T10:49:22;-0.30;1.00
573;DHT22;271;51.114;13.780;2022-12-18T10:52:05;-0.20;1.00
573;DHT22;271;51.114;13.780;2022-12-18T10:54:34;-0.20;1.00
573;DHT22;271;51.114;13.780;2022-12-18T10:57:17;-0.10;1.00
573;DHT22;271;51.114;13.780;2022-12-18T10:59:53;-0.30;1.00
573;DHT22;271;51.114;13.780;2022-12-18T11:02:27;-0.30;1.00
573;DHT22;271;51.114;13.780;2022-12-18T11:05:02;-0.50;1.00
573;DHT22;271;51.114;13.780;2022-12-18T11:07:48;-0.50;1.00
573;DHT22;271;51.114;13.780;2022-12-18T11:10:17;-0.70;1.00
573;DHT22;271;51.114;13.780;2022-12-18T11:12:46;-0.80;1.00
573;DHT22;271;51.114;13.780;2022-12-18T11:15:16;-0.80;1.00
573;DHT22;271;51.114;13.780;2022-12-18T11:17:48;-0.80;1.00
573;DHT22;271;51.114;13.780;2022-12-18T11:20:29;-0.80;1.00
573;DHT22;271;51.114;13.780;2022-12-18T11:22:59;-0.90;1.00
573;DHT22;271;51.114;13.780;2022-12-18T11:25:30;-0.80;1.00
573;DHT22;271;51.114;13.780;2022-12-18T11:28:03;-0.90;1.00
573;DHT22;271;51.114;13.780;2022-12-18T11:30:32;-0.90;1.00
573;DHT22;271;51.114;13.780;2022-12-18T11:33:04;-1.00;1.00
573;DHT22;271;51.114;13.780;2022-12-18T11:35:37;-1.10;1.00
573;DHT22;271;51.114;13.780;2022-12-18T11:38:12;-1.20;1.00
573;DHT22;271;51.114;13.780;2022-12-18T11:40:47;-1.30;1.00
573;DHT22;271;51.114;13.780;2022-12-18T11:43:22;-1.40;1.00
573;DHT22;271;51.114;13.780;2022-12-18T11:45:54;-1.40;1.00
573;DHT22;271;51.114;13.780;2022-12-18T11:48:26;-1.40;1.00
573;DHT22;271;51.114;13.780;2022-12-18T11:50:56;-1.40;1.00
573;DHT22;271;51.114;13.780;2022-12-18T11:53:25;-1.40;1.00
573;DHT22;271;51.114;13.780;2022-12-18T11:56:02;-1.50;1.00
573;DHT22;271;51.114;13.780;2022-12-18T11:58:46;-1.50;1.00
573;DHT22;271;51.114;13.780;2022-12-18T12:01:28;-1.50;1.00
573;DHT22;271;51.114;13.780;2022-12-18T12:07:06;-1.40;1.00
573;DHT22;271;51.114;13.780;2022-12-18T12:09:45;-1.50;1.00
573;DHT22;271;51.114;13.780;2022-12-18T12:12:29;-1.70;1.00
573;DHT22;271;51.114;13.780;2022-12-18T12:15:25;-1.70;1.00
573;DHT22;271;51.114;13.780;2022-12-18T12:18:01;-1.60;1.00
573;DHT22;271;51.114;13.780;2022-12-18T12:20:49;-1.80;1.00
573;DHT22;271;51.114;13.780;2022-12-18T12:23:33;-1.90;1.00
573;DHT22;271;51.114;13.780;2022-12-18T12:26:16;-2.00;1.00
573;DHT22;271;51.114;13.780;2022-12-18T12:29:06;-2.10;1.00
573;DHT22;271;51.114;13.780;2022-12-18T12:31:57;-2.10;1.00
573;DHT22;271;51.114;13.780;2022-12-18T12:34:33;-2.10;1.00
573;DHT22;271;51.114;13.780;2022-12-18T12:37:35;-2.10;1.00
573;DHT22;271;51.114;13.780;2022-12-18T12:40:07;-2.00;1.00
573;DHT22;271;51.114;13.780;2022-12-18T12:42:44;-2.00;1.00
573;DHT22;271;51.114;13.780;2022-12-18T12:45:36;-2.10;1.00
573;DHT22;271;51.114;13.780;2022-12-18T12:48:17;-2.10;1.00
573;DHT22;271;51.114;13.780;2022-12-18T12:50:46;-2.00;1.00
573;DHT22;271;51.114;13.780;2022-12-18T12:53:25;-2.10;1.00
573;DHT22;271;51.114;13.780;2022-12-18T12:55:55;-2.00;1.00
573;DHT22;271;51.114;13.780;2022-12-18T12:58:33;-2.00;1.00
573;DHT22;271;51.114;13.780;2022-12-18T13:01:15;-2.00;1.00
573;DHT22;271;51.114;13.780;2022-12-18T13:03:54;-2.00;1.00
573;DHT22;271;51.114;13.780;2022-12-18T13:06:31;-1.90;1.00
573;DHT22;271;51.114;13.780;2022-12-18T13:09:01;-2.10;1.00
573;DHT22;271;51.114;13.780;2022-12-18T13:11:39;-2.10;1.00
573;DHT22;271;51.114;13.780;2022-12-18T13:14:28;-2.20;1.00
573;DHT22;271;51.114;13.780;2022-12-18T13:17:17;-2.20;1.00
573;DHT22;271;51.114;13.780;2022-12-18T13:20:05;-2.30;1.00
573;DHT22;271;51.114;13.780;2022-12-18T13:22:35;-2.40;1.00
573;DHT22;271;51.114;13.780;2022-12-18T13:25:27;-2.40;1.00
573;DHT22;271;51.114;13.780;2022-12-18T13:28:03;-2.50;1.00
573;DHT22;271;51.114;13.780;2022-12-18T13:30:54;-2.60;1.00
573;DHT22;271;51.114;13.780;2022-12-18T13:33:41;-2.60;1.00
573;DHT22;271;51.114;13.780;2022-12-18T13:36:26;-2.70;1.00
573;DHT22;271;51.114;13.780;2022-12-18T13:41:54;-2.80;1.00
573;DHT22;271;51.114;13.780;2022-12-18T13:45:01;-2.80;1.00
573;DHT22;271;51.114;13.780;2022-12-18T13:47:49;-2.80;1.00
573;DHT22;271;51.114;13.780;2022-12-18T13:50:24;-2.90;1.00
573;DHT22;271;51.114;13.780;2022-12-18T13:52:54;-2.80;1.00
573;DHT22;271;51.114;13.780;2022-12-18T13:55:22;-2.80;1.00
573;DHT22;271;51.114;13.780;2022-12-18T13:58:03;-2.80;1.00
573;DHT22;271;51.114;13.780;2022-12-18T14:00:31;-2.90;1.00
573;DHT22;271;51.114;13.780;2022-12-18T14:02:59;-2.80;1.00
573;DHT22;271;51.114;13.780;2022-12-18T14:05:29;-2.90;1.00
573;DHT22;271;51.114;13.780;2022-12-18T14:08:02;-3.00;1.00
573;DHT22;271;51.114;13.780;2022-12-18T14:10:33;-3.00;1.00
573;DHT22;271;51.114;13.780;2022-12-18T14:13:05;-3.10;1.00
573;DHT22;271;51.114;13.780;2022-12-18T14:15:35;-3.10;1.00
573;DHT22;271;51.114;13.780;2022-12-18T14:18:16;-3.20;1.00
573;DHT22;271;51.114;13.780;2022-12-18T14:20:47;-3.10;1.00
573;DHT22;271;51.114;13.780;2022-12-18T14:23:31;-3.30;1.00
573;DHT22;271;51.114;13.780;2022-12-18T14:25:59;-3.40;1.00
573;DHT22;271;51.114;13.780;2022-12-18T14:28:27;-3.40;1.00
573;DHT22;271;51.114;13.780;2022-12-18T14:30:55;-3.50;1.00
573;DHT22;271;51.114;13.780;2022-12-18T14:33:24;-3.60;1.00
573;DHT22;271;51.114;13.780;2022-12-18T14:35:54;-3.40;1.00
573;DHT22;271;51.114;13.780;2022-12-18T14:38:30;-3.60;1.00
573;DHT22;271;51.114;13.780;2022-12-18T14:41:02;-3.60;1.00
573;DHT22;271;51.114;13.780;2022-12-18T14:43:32;-3.70;1.00
573;DHT22;271;51.114;13.780;2022-12-18T14:46:01;-3.70;1.00
573;DHT22;271;51.114;13.780;2022-12-18T14:48:37;-3.70;1.00
573;DHT22;271;51.114;13.780;2022-12-18T14:51:12;-3.80;1.00
573;DHT22;271;51.114;13.780;2022-12-18T14:53:45;-3.80;1.00
573;DHT22;271;51.114;13.780;2022-12-18T14:56:16;-3.90;1.00
573;DHT22;271;51.114;13.780;2022-12-18T14:58:48;-3.80;1.00
573;DHT22;271;51.114;13.780;2022-12-18T15:01:21;-3.80;1.00
573;DHT22;271;51.114;13.780;2022-12-18T15:03:51;-3.80;1.00
573;DHT22;271;51.114;13.780;2022-12-18T15:06:28;-3.90;1.00
573;DHT22;271;51.114;13.780;2022-12-18T15:08:58;-3.90;1.00
573;DHT22;271;51.114;13.780;2022-12-18T15:11:30;-3.90;1.00
573;DHT22;271;51.114;13.780;2022-12-18T15:13:59;-4.00;1.00
573;DHT22;271;51.114;13.780;2022-12-18T15:16:26;-4.00;1.00
573;DHT22;271;51.114;13.780;2022-12-18T15:18:54;-4.10;1.00
573;DHT22;271;51.114;13.780;2022-12-18T15:21:21;-4.10;1.00
573;DHT22;271;51.114;13.780;2022-12-18T15:23:50;-4.10;1.00
573;DHT22;271;51.114;13.780;2022-12-18T15:26:21;-4.20;1.00
573;DHT22;271;51.114;13.780;2022-12-18T15:28:50;-4.20;1.00
573;DHT22;271;51.114;13.780;2022-12-18T15:31:29;-4.20;1.00
573;DHT22;271;51.114;13.780;2022-12-18T15:34:08;-4.20;1.00
573;DHT22;271;51.114;13.780;2022-12-18T15:36:36;-4.20;1.00
573;DHT22;271;51.114;13.780;2022-12-18T15:39:05;-4.20;1.00
573;DHT22;271;51.114;13.780;2022-12-18T15:41:35;-4.40;1.00
573;DHT22;271;51.114;13.780;2022-12-18T15:44:15;-4.30;1.00
573;DHT22;271;51.114;13.780;2022-12-18T15:46:47;-4.30;1.00
573;DHT22;271;51.114;13.780;2022-12-18T15:49:14;-4.30;1.00
573;DHT22;271;51.114;13.780;2022-12-18T15:51:42;-4.30;1.00
573;DHT22;271;51.114;13.780;2022-12-18T15:54:13;-4.30;1.00
573;DHT22;271;51.114;13.780;2022-12-18T15:56:43;-4.30;1.00
573;DHT22;271;51.114;13.780;2022-12-18T15:59:28;-4.30;1.00
573;DHT22;271;51.114;13.780;2022-12-18T16:01:56;-4.30;1.00
573;DHT22;271;51.114;13.780;2022-12-18T16:04:24;-4.30;1.00
573;DHT22;271;51.114;13.780;2022-12-18T16:06:51;-4.40;1.00
573;DHT22;271;51.114;13.780;2022-12-18T16:09:19;-4.20;1.00
573;DHT22;271;51.114;13.780;2022-12-18T16:11:48;-4.20;1.00
573;DHT22;271;51.114;13.780;2022-12-18T16:14:18;-4.40;1.00
573;DHT22;271;51.114;13.780;2022-12-18T16:16:46;-4.40;1.00
573;DHT22;271;51.114;13.780;2022-12-18T16:19:14;-4.40;1.00
573;DHT22;271;51.114;13.780;2022-12-18T16:21:42;-4.40;1.00
573;DHT22;271;51.114;13.780;2022-12-18T16:24:13;-4.40;1.00
573;DHT22;271;51.114;13.780;2022-12-18T16:26:42;-4.40;1.00
573;DHT22;271;51.114;13.780;2022-12-18T16:29:11;-4.40;1.00
573;DHT22;271;51.114;13.780;2022-12-18T16:31:38;-4.40;1.00
573;DHT22;271;51.114;13.780;2022-12-18T16:34:13;-4.40;1.00
573;DHT22;271;51.114;13.780;2022-12-18T16:36:41;-4.50;1.00
573;DHT22;271;51.114;13.780;2022-12-18T16:39:08;-4.40;1.00
573;DHT22;271;51.114;13.780;2022-12-18T16:41:35;-4.40;1.00
573;DHT22;271;51.114;13.780;2022-12-18T16:44:03;-4.40;1.00
573;DHT22;271;51.114;13.780;2022-12-18T16:46:32;-4.30;1.00
573;DHT22;271;51.114;13.780;2022-12-18T16:49:00;-4.40;1.00
573;DHT22;271;51.114;13.780;2022-12-18T16:51:27;-4.40;1.00
573;DHT22;271;51.114;13.780;2022-12-18T16:53:55;-4.30;1.00
573;DHT22;271;51.114;13.780;2022-12-18T16:56:23;-4.30;1.00
573;DHT22;271;51.114;13.780;2022-12-18T16:58:51;-4.30;1.00
573;DHT22;271;51.114;13.780;2022-12-18T17:01:19;-4.30;1.00
573;DHT22;271;51.114;13.780;2022-12-18T17:03:52;-4.30;1.00
573;DHT22;271;51.114;13.780;2022-12-18T17:06:20;-4.20;1.00
573;DHT22;271;51.114;13.780;2022-12-18T17:08:49;-4.30;1.00